Latest Coastal Weather Observations for Darwin Airport

IDD60701

Issued at 5:21 am CST Monday 21 September 2020 (issued every 10 minutes, with the page automatically refreshed every 10 minutes)

About coastal observations | Map of coastal stations | Coastal observations for NT | Marine services | Other Formats
Station Details ID: 014015 Name: DARWIN AIRPORT Lat: -12.42 Lon: 130.89 Height: 30.4 m
Data from the previous 72 hours. | See also: Recent months at Darwin Airport
Date/Time
CST
Wind Sea
Height
m
Swell Vis
km
Cloud Weather Temp
°C
Press
hPa
Rain since
9am
mm
Dir  Spd
kts
Gust
kts
Height
m
Period
s
Dir
21/05:00am N 1 3 - - - - 10 Partly cloudy - 26.0 1010.6 17.6
21/04:30am N 3 4 - - - - 10 Partly cloudy - 26.4 1010.4 17.6
21/04:00am N 3 4 - - - - 10 Cloudy - 26.4 1010.3 17.6
21/03:30am NNE 2 2 - - - - 10 Partly cloudy - 26.4 1010.3 17.6
21/03:00am N 2 3 - - - - 10 Mostly cloudy - 26.4 1010.3 17.6
21/02:30am N 3 4 - - - - 10 Partly cloudy - 26.4 1010.4 17.6
21/02:00am NNW 4 5 - - - - 10 Partly cloudy - 26.6 1010.5 17.6
21/01:30am NNW 5 6 - - - - 10 Cloudy - 26.8 1010.8 17.6
21/01:00am N 3 4 - - - - 10 Partly cloudy - 26.5 1010.9 17.6
21/12:41am N 4 5 - - - - 10 Partly cloudy - 26.5 1011.1 17.6
21/12:33am N 4 6 - - - - 10 Partly cloudy - 26.6 1011.1 17.6
21/12:30am N 5 6 - - - - 5 Partly cloudy - 26.6 1011.1 17.6
21/12:20am NNW 8 10 - - - - 6 Partly cloudy - 26.6 1011.2 17.0
21/12:00am WNW 9 11 - - - - 30 Mostly cloudy Fine 27.1 1011.2 16.4
 
Date/Time
CST
Wind Sea
Height
m
Swell Vis
km
Cloud Weather Temp
°C
Press
hPa
Rain since
9am
mm
Dir  Spd
kts
Gust
kts
Height
m
Period
s
Dir
20/11:30pm NW 9 11 - - - - 10 Partly cloudy - 27.1 1011.2 16.4
20/11:00pm N 5 8 - - - - 10 Mostly clear - 25.8 1011.1 16.4
20/10:30pm NNW 5 6 - - - - 10 - - 25.8 1011.3 16.4
20/10:00pm NNW 5 7 - - - - 10 Mostly clear - 25.6 1010.9 16.4
20/09:30pm NNW 3 5 - - - - 10 Mostly clear - 25.4 1011.0 16.4
20/09:13pm N 7 10 - - - - 10 Mostly clear Rain 25.2 1010.9 16.4
20/09:00pm ESE 2 10 - - - - 5 Mostly cloudy Showers 25.0 1011.4 16.2
20/08:36pm SSW 8 13 - - - - 5 Partly cloudy Thunderstorm 24.9 1012.5 2.0
20/08:30pm WSW 6 12 - - - - 10 Partly cloudy - 28.0 1011.9 0.0
20/08:00pm WNW 7 9 - - - - 10 Mostly clear - 28.7 1010.7 0.0
20/07:30pm NW 7 10 - - - - 10 Mostly clear - 29.6 1010.1 0.0
20/07:00pm NNW 3 4 - - - - 10 Mostly clear - 30.1 1009.8 0.0
20/06:30pm NNW 4 6 - - - - 10 Mostly clear - 30.5 1009.2 0.0
20/06:00pm N 8 10 - - - - 30 Partly cloudy Fine 31.0 1008.5 0.0
20/05:30pm N 9 11 - - - - 10 Mostly clear - 31.1 1008.4 0.0
20/05:00pm N 9 11 - - - - 10 Mostly clear - 31.0 1008.6 0.0
20/04:30pm N 8 10 - - - - 10 Mostly clear - 30.8 1008.3 0.0
20/04:00pm N 9 12 - - - - 10 Mostly clear - 29.9 1008.4 0.0
20/03:30pm NNW 11 13 - - - - 10 Mostly clear - 30.0 1008.8 0.0
20/03:00pm NNW 11 15 - - - - 30 Partly cloudy Fine 31.2 1008.9 0.0
20/02:30pm NNW 11 15 - - - - 10 Mostly clear - 30.8 1009.3 0.0
20/02:00pm NNW 10 13 - - - - 10 Mostly clear - 31.4 1009.7 0.0
20/01:30pm N 10 14 - - - - 10 Partly cloudy - 30.3 1010.3 0.0
20/01:00pm N 10 13 - - - - 10 Partly cloudy - 30.8 1010.8 0.0
20/12:30pm NNW 7 9 - - - - 10 Mostly clear - 30.2 1011.5 0.0
20/12:00pm NNE 7 10 - - - - 30 Mostly cloudy Fine 29.5 1012.0 0.0
20/11:30am NE 7 10 - - - - 10 Partly cloudy - 29.1 1012.5 0.0
20/11:00am N 6 9 - - - - 10 Partly cloudy - 28.9 1012.8 0.0
20/10:30am NNE 8 11 - - - - 10 Partly cloudy - 28.6 1013.1 0.0
20/10:00am NNE 8 11 - - - - 10 Partly cloudy - 28.9 1013.1 0.0
20/09:30am ENE 5 7 - - - - 10 Partly cloudy - 28.6 1013.1 0.0
20/09:00am ENE 3 5 - - - - 30 Mostly cloudy Fine 27.3 1012.9 49.8
20/08:30am SE 2 3 - - - - 10 Mostly clear - 26.8 1012.9 49.8
20/08:00am E 3 3 - - - - 10 Mostly clear - 25.2 1012.8 49.8
20/07:30am E 1 3 - - - - 10 Mostly clear - 24.5 1012.4 49.8
20/07:00am ENE 3 4 - - - - 10 Mostly clear - 24.4 1012.1 49.8
20/06:30am ESE 2 5 - - - - 10 Mostly clear - 24.4 1011.7 49.8
20/06:00am NNE 3 4 - - - - 12 Cloudy Thunderstorm 24.1 1011.4 49.6
20/05:51am N 6 8 - - - - 3 Mostly clear Rain 24.1 1011.4 49.2
20/05:30am NE 9 11 - - - - 2 Mostly clear - 23.9 1011.3 44.8
20/05:24am NNE 9 12 - - - - 2 Mostly clear Thunderstorm 23.9 1011.4 43.6
20/05:00am N 6 10 - - - - 1 Partly cloudy - 25.3 1011.0 16.8
20/04:52am NNW 5 6 - - - - 2 Partly cloudy - 25.5 1010.7 9.0
20/04:30am N 4 5 - - - - 4 Partly cloudy - 25.9 1010.6 1.4
20/04:26am N 4 5 - - - - 6 Partly cloudy - 26.0 1010.5 1.0
20/04:00am WNW 6 8 - - - - 10 Partly cloudy - 26.3 1010.3 0.4
20/03:30am NW 7 9 - - - - 10 Cloudy - 26.4 1010.6 0.4
20/03:00am NW 6 8 - - - - 10 Cloudy - 26.8 1010.6 0.4
20/02:30am WNW 4 6 - - - - 10 Partly cloudy - 27.3 1010.6 0.4
20/02:00am WNW 5 6 - - - - 10 Partly cloudy - 27.2 1010.8 0.4
20/01:30am NW 6 9 - - - - 10 Partly cloudy - 27.4 1010.8 0.4
20/01:00am NW 7 10 - - - - 10 Partly cloudy - 27.6 1011.4 0.4
20/12:30am NW 8 10 - - - - 10 Partly cloudy - 27.6 1011.7 0.4
20/12:00am WNW 7 8 - - - - 25 Partly cloudy Smoke 27.5 1011.7 0.4
 
Date/Time
CST
Wind Sea
Height
m
Swell Vis
km
Cloud Weather Temp
°C
Press
hPa
Rain since
9am
mm
Dir  Spd
kts
Gust
kts
Height
m
Period
s
Dir
19/11:30pm NW 9 11 - - - - 10 Mostly clear - 28.0 1011.8 0.4
19/11:00pm W 4 5 - - - - 10 Mostly clear - 28.0 1011.7 0.4
19/10:30pm W 5 8 - - - - 10 Mostly clear - 28.2 1011.6 0.4
19/10:00pm WNW 6 8 - - - - 10 Mostly clear - 28.4 1011.3 0.4
19/09:30pm NW 4 6 - - - - 10 Mostly clear - 28.5 1011.0 0.4
19/09:00pm NNW 3 4 - - - - 20 Partly cloudy Smoke 28.4 1010.9 0.4
19/08:30pm N 7 8 - - - - 10 Mostly clear - 28.8 1010.5 0.4
19/08:00pm N 4 6 - - - - 10 Partly cloudy - 29.0 1010.1 0.4
19/07:30pm NNE 4 6 - - - - 10 - - 29.3 1009.5 0.4
19/07:00pm NNE 7 10 - - - - 10 - - 29.6 1009.1 0.4
19/06:30pm NNE 9 10 - - - - 10 - - 30.2 1008.9 0.4
19/06:00pm N 9 11 - - - - 25 Mostly cloudy Smoke 30.8 1008.8 0.4
19/05:30pm NNW 7 9 - - - - 10 Mostly clear - 31.6 1008.6 0.4
19/05:00pm N 10 12 - - - - 10 Mostly clear - 31.7 1008.6 0.4
19/04:30pm NNW 9 11 - - - - 10 Partly cloudy - 31.5 1008.3 0.4
19/04:00pm NNW 8 11 - - - - 10 Partly cloudy - 31.5 1008.8 0.4
19/03:30pm N 8 13 - - - - 10 Mostly clear - 31.1 1009.0 0.4
19/03:00pm N 8 13 - - - - 20 Mostly cloudy Smoke 31.3 1009.3 0.4
19/02:30pm NNW 8 10 - - - - 10 Mostly clear - 30.5 1009.7 0.4
19/02:00pm N 8 11 - - - - 10 Partly cloudy - 31.1 1010.2 0.4
19/01:30pm NNE 8 11 - - - - 10 Partly cloudy - 30.8 1010.8 0.4
19/01:00pm NNE 6 10 - - - - 10 Mostly clear - 30.0 1011.3 0.4
19/12:30pm NNE 7 11 - - - - 10 Partly cloudy - 28.5 1012.0 0.4
19/12:00pm NNE 4 7 - - - - 20 Mostly cloudy Distant precip. 29.8 1012.5 0.2
19/11:30am NE 5 7 - - - - 10 Partly cloudy - 29.3 1013.1 0.2
19/11:00am NE 6 11 - - - - 10 Partly cloudy - 28.8 1013.4 0.2
19/10:30am NE 4 6 - - - - 10 Partly cloudy - 27.8 1013.8 0.2
19/10:00am NE 5 7 - - - - 10 Mostly clear - 26.9 1014.1 0.2
19/09:30am NE 6 8 - - - - 10 Mostly clear - 26.1 1014.1 0.2
19/09:19am NE 6 9 - - - - 10 Mostly clear - 25.7 1014.0 0.2
19/09:00am ENE 10 14 - - - - 15 Cloudy Showers 25.5 1014.1 9.6
19/08:56am E 10 14 - - - - 5 Partly cloudy Showers 25.6 1014.1 9.6
19/08:42am E 7 12 - - - - 2 Partly cloudy Showers 26.1 1014.0 9.6
19/08:30am ESE 4 6 - - - - 10 Partly cloudy - 26.6 1013.8 9.6
19/08:00am SSE 3 5 - - - - 10 Partly cloudy - 26.2 1013.3 9.6
19/07:30am SSE 2 3 - - - - 10 Mostly clear - 25.9 1013.0 9.6
19/07:00am E 1 3 - - - - 10 Partly cloudy Drizzle 25.5 1012.7 9.6
19/06:52am E 2 3 - - - - 6 Partly cloudy Showers 25.5 1012.6 9.6
19/06:30am E 3 3 - - - - 10 Partly cloudy - 25.5 1012.2 9.6
19/06:00am ESE 5 5 - - - - 12 Mostly cloudy Recent precip. 25.6 1011.6 9.6
19/05:30am E 4 12 - - - - 9 Mostly clear - 25.5 1011.5 9.6
19/05:12am CALM 0 2 - - - - 5 Partly cloudy - 25.7 1011.5 8.6
19/05:00am CALM 0 0 - - - - 10 Partly cloudy - 26.1 1011.1 6.8
19/04:30am SSW 1 3 - - - - 10 Partly cloudy - 25.9 1011.1 6.8
19/04:00am SW 1 3 - - - - 10 Partly cloudy - 25.9 1011.1 6.8
19/03:30am WSW 3 4 - - - - 10 Cloudy - 26.1 1011.1 6.8
19/03:04am N 1 4 - - - - 10 Partly cloudy - 25.9 1011.1 6.8
19/03:00am NNE 2 4 - - - - 10 Cloudy Showers 25.8 1011.1 6.8
19/02:47am N 6 9 - - - - 10 Partly cloudy - 25.8 1011.2 6.8
19/02:34am ESE 4 9 - - - - 10 Partly cloudy - 26.0 1011.2 6.8
19/02:30am SE 4 6 - - - - 10 Partly cloudy - 25.9 1011.2 6.8
19/02:07am W 5 6 - - - - 5 Partly cloudy - 25.9 1011.6 1.8
19/02:00am WNW 5 6 - - - - 10 Partly cloudy - 27.3 1011.6 0.0
19/01:30am W 5 6 - - - - 10 Partly cloudy - 27.9 1011.8 0.0
19/01:00am WNW 3 4 - - - - 10 Cloudy - 28.2 1012.0 0.0
19/12:30am W 5 6 - - - - 10 Partly cloudy - 28.2 1012.3 0.0
19/12:00am W 5 7 - - - - 30 Mostly cloudy Fine 28.1 1012.4 0.0
 
Date/Time
CST
Wind Sea
Height
m
Swell Vis
km
Cloud Weather Temp
°C
Press
hPa
Rain since
9am
mm
Dir  Spd
kts
Gust
kts
Height
m
Period
s
Dir
18/11:30pm WNW 5 7 - - - - 10 Mostly cloudy - 28.0 1012.4 0.0
18/11:00pm W 6 8 - - - - 10 Mostly clear - 28.1 1012.1 0.0
18/10:30pm WNW 8 10 - - - - 10 Mostly clear - 28.4 1012.0 0.0
18/10:00pm WNW 7 9 - - - - 10 Mostly clear - 28.5 1011.8 0.0
18/09:30pm WNW 8 11 - - - - 10 Mostly clear - 28.7 1011.5 0.0
18/09:00pm WNW 7 9 - - - - 30 Mostly cloudy Fine 28.5 1011.3 0.0
18/08:30pm WNW 8 10 - - - - 10 - - 28.3 1011.0 0.0
18/08:00pm NNW 8 13 - - - - 10 - - 28.9 1010.7 0.0
18/07:30pm NNE 6 8 - - - - 10 - - 29.5 1010.4 0.0
18/07:00pm NNE 7 10 - - - - 10 Mostly clear - 29.8 1010.2 0.0
18/06:30pm NNE 8 11 - - - - 10 Mostly clear - 30.6 1009.7 0.0
18/06:00pm NNE 11 18 - - - - 30 Mostly clear Smoke 30.8 1009.5 0.0
18/05:30pm NNE 11 16 - - - - 10 Mostly clear - 31.7 1009.3 0.0
18/05:00pm N 10 15 - - - - 10 Mostly clear - 32.0 1009.3 0.0
18/04:30pm NNE 10 17 - - - - 10 Mostly clear - 33.0 1009.3 0.0
18/04:00pm N 11 16 - - - - 10 Mostly clear - 33.0 1009.5 0.0
18/03:30pm NNE 11 14 - - - - 10 Mostly clear - 33.2 1009.8 0.0
18/03:00pm NNE 13 19 - - - - 30 Partly cloudy Fine 32.1 1010.2 0.0
18/02:30pm N 12 16 - - - - 10 Partly cloudy - 31.9 1010.7 0.0
18/02:00pm N 11 16 - - - - 10 Partly cloudy - 31.8 1011.2 0.0
18/01:30pm NNW 10 14 - - - - 10 Partly cloudy - 31.0 1011.6 0.0
18/01:00pm NW 11 16 - - - - 10 Partly cloudy - 30.6 1012.2 0.0
18/12:30pm NW 10 14 - - - - 10 Partly cloudy - 30.4 1012.9 0.0
18/12:00pm W 8 11 - - - - 30 Mostly cloudy Fine 31.2 1013.4 0.0
18/11:30am E 3 9 - - - - 10 Partly cloudy - 31.8 1013.7 0.0
18/11:00am NE 7 11 - - - - 10 Partly cloudy - 32.0 1014.1 0.0
18/10:30am ENE 5 12 - - - - 10 Partly cloudy - 30.2 1014.5 0.0
18/10:00am E 9 13 - - - - 10 Partly cloudy - 30.4 1014.6 0.0
18/09:30am SE 5 9 - - - - 10 Partly cloudy - 29.8 1014.6 0.0
18/09:00am E 6 8 - - - - 30 Partly cloudy Fine 29.0 1014.4 0.0
18/08:30am E 5 7 - - - - 10 Mostly clear - 28.3 1014.3 0.0
18/08:00am E 5 7 - - - - 10 Mostly clear - 26.7 1014.0 0.0
18/07:30am E 5 7 - - - - 10 Mostly clear - 26.3 1013.6 0.0
18/07:00am E 6 7 - - - - 10 Mostly clear Showers 25.7 1013.2 0.0
18/06:30am E 5 7 - - - - 10 Mostly clear - 25.6 1012.9 0.0
18/06:00am E 3 6 - - - - 20 Mostly cloudy Distant precip. 25.7 1012.4 0.0
18/05:30am CALM 0 0 - - - - 10 Partly cloudy - 25.7 1012.0 0.0

Other formats

Comma delimited format used in spreadsheet applications
http://www.bom.gov.au/fwo/IDD60701/IDD60701.94120.axf

JavaScript Object Notation format (JSON) in row-major order
http://www.bom.gov.au/fwo/IDD60701/IDD60701.94120.json

Data quality

Most of these data are generated automatically and are frequently updated. Quality checks on data are not normally performed. It is possible for incorrect values to appear. Refer to information at About Latest Weather Observations and please check the disclaimer before using these data.